XML Sitemap

This is a XML Sitemap which is supposed to be processed by search engines which follow the XML Sitemap standard like Ask.com, Bing, Google and Yahoo.
It was generated using the WordPress content management system and the Google Sitemap Generator Plugin by Arne Brachhold.
You can find more information about XML sitemaps on sitemaps.org and Google's list of sitemap programs.

URLPriorityChange frequencyLast modified (GMT)
https://oiger.de/2021/09/30/dresdner-flugzeugwerft-baut-strassenbahn-geschaeft-aus/18076720%Daily2021-09-30 15:29
https://oiger.de/2021/09/30/professoren-unterrichten-virtuell-in-fernsteuer-laboren/18075920%Daily2021-09-30 09:25
https://oiger.de/2021/09/29/schnitzt-bald-meister-roboter-den-nussknacker/18075020%Daily2021-09-29 15:18
https://oiger.de/2021/09/29/china-kaempft-mit-stromausfaellen/18074620%Daily2021-09-29 09:03
https://oiger.de/2021/09/28/kuenstliche-intelligenz-aus-dresden-fahndet-nach-blutkrebs/18073820%Daily2021-09-28 14:25
https://oiger.de/2021/09/28/alixlabs-sammelt-9-millionen-kronen-risikokapital-ein/18073320%Daily2021-09-28 08:58
https://oiger.de/2021/09/27/ifw-oekonom-neue-regierung-kann-nicht-mehr-aus-dem-vollen-schoepfen/18072920%Daily2021-09-27 18:06
https://oiger.de/2021/09/27/forscher-zeigen-in-dresden-die-aesthetik-im-nebeneffekt/18071220%Daily2021-09-27 13:49
https://oiger.de/2021/09/26/46-millionen-euro-fuer-neues-ki-rechenzentrum-leipzig/18071020%Daily2021-09-26 17:31
https://oiger.de/2021/09/25/dresden-richtet-1-sternennacht-aus/18070520%Daily2021-09-25 10:33
https://oiger.de/2021/09/24/roboter-sollen-die-lausitz-rekultivieren/18069320%Daily2021-09-24 17:14
https://oiger.de/2021/09/24/sachsens-wirtschaft-erholt-sich-von-corona-43-zuwachs/18068620%Daily2021-09-24 08:19
https://oiger.de/2021/09/23/solarwatt-eroeffnet-fabrikanbau-f8-in-dresden/18067520%Daily2021-09-23 15:09
https://oiger.de/2021/09/23/roboter-wird-zum-qualitaets-inspektor/18066520%Daily2021-09-23 10:09
https://oiger.de/2021/09/22/tschirnhaus-plakette-fuer-mikroroboter-experten-bandari/18066020%Daily2021-09-22 14:43
https://oiger.de/2021/09/22/mehr-tempo-von-eu-in-der-mikroelektronik-gefordert/18065120%Daily2021-09-22 12:15
https://oiger.de/2021/09/22/erholung-ausgebremst-ifo-senkt-konjunkturprognose-fuer-2021/18064620%Daily2021-09-22 09:52
https://oiger.de/2021/09/21/handwerker-moegen-eher-die-passiven-exoskelette/18064220%Daily2021-09-21 15:21
https://oiger.de/2021/09/21/containerstaus-vor-chinas-haefen-bremsen-corona-erholung-aus/18063920%Daily2021-09-21 07:09
https://oiger.de/2021/09/20/rekord-schwungrad-boxdorf-faengt-windenergiespitzen-ab/18063220%Daily2021-12-13 18:29
https://oiger.de/2021/09/20/meleghy-baut-in-bernsbach-neues-presswerk-fuer-autoteile/18062120%Daily2021-09-20 09:37
https://oiger.de/2021/09/19/45-millionen-euro-risikokapital-fuer-robotik-firma-coboworx/18061820%Daily2021-09-19 14:16
https://oiger.de/2021/09/18/prototypen-von-faustkeil-bis-fleischformel/18060720%Daily2021-09-18 12:13
https://oiger.de/2021/09/17/porsche-uebergibt-dresdner-forschern-neuen-elektro-sportwage/18060220%Daily2021-09-20 14:20
https://oiger.de/2021/09/17/infineon-startet-leistungshalbleiter-fabrik-in-villach/18059820%Daily2021-09-17 11:36
https://oiger.de/2021/09/17/stromausbeute-von-fluessigmetall-akkus-verbessert/18059520%Daily2021-09-20 14:19
https://oiger.de/2021/09/16/jenoptik-steckt-70-millionen-in-neue-fabrik-in-dresden/18059220%Daily2021-09-16 21:01
https://oiger.de/2021/09/15/dresden-hofft-auf-weitere-robotik-ansiedlungen/18058420%Daily2021-09-15 22:29
https://oiger.de/2021/09/15/klimadebatte-warum-wir-die-welt-und-nicht-uns-selbst-retten/18057520%Daily2021-09-15 08:07
https://oiger.de/2021/09/14/fraunhofer-dresden-will-sicherheitsluecken-in-autochips-aufdecken/18057120%Daily2021-09-14 15:55
https://oiger.de/2021/09/14/co2-verwerter-koennen-oekobilanz-in-zementwerken-verbessern/18056520%Daily2021-09-14 09:32
https://oiger.de/2021/09/13/tu-dresden-arbeitet-an-besseren-gleichrichtern-fuer-elektrolyseure/18056320%Daily2021-09-13 18:42
https://oiger.de/2021/09/13/kallisto-aus-dresden-wacht-ueber-marathon-laeufer/18055720%Daily2021-09-13 09:05
https://oiger.de/2021/09/12/zwei-drittel-fuerchten-digitale-angriffe-auf-bundestagswahl/18055020%Daily2021-09-12 10:09
https://oiger.de/2021/09/11/dresdner-ingenieure-kaempfen-gegen-schokoladen-ausschuss/18054620%Daily2021-09-11 10:08
https://oiger.de/2021/09/10/sachsen-will-bis-2025-zum-fuehrenden-ki-standort-aufsteigen/18053620%Daily2021-09-10 13:33
https://oiger.de/2021/09/10/fusion-bionic-baut-kleinfabrik-fuer-bionische-lasereffekte-in-dresden/18052620%Daily2021-09-10 08:23
https://oiger.de/2021/09/09/mehr-ausdauer-fuer-unterwasser-roboter/18052120%Daily2021-09-09 14:14
https://oiger.de/2021/09/09/markt-fuer-vorausschauende-wartung-waechst-rasch/18051220%Daily2021-10-11 09:11
https://oiger.de/2021/09/08/groesste-elektroauto-auslieferung-in-dresden/18050920%Daily2021-09-08 17:14
https://oiger.de/2021/09/08/heraeus-liebaeugelt-mit-bionischen-lasergravuren-aus-dresden/18050320%Daily2021-09-08 14:34
https://oiger.de/2021/09/08/ifo-nachschubprobleme-fuer-deutsche-industrie-verschaerfen-sich/18049920%Daily2021-09-08 08:48
https://oiger.de/2021/09/07/tarnkappen-und-fuehlende-roboter-ruecken-naeher/18049420%Daily2021-09-07 18:21
https://oiger.de/2021/09/07/wasserstoff-motor-als-bruecke-zum-abgasfreien-laster/18048820%Daily2021-09-07 12:48
https://oiger.de/2021/09/06/kleinsatelliten-initiative-angekuendigt/18048620%Daily2021-09-06 16:13
https://oiger.de/2021/09/06/mit-der-elektronenkanone-gegen-saatgut-pilze/18048020%Daily2021-09-06 14:06
https://oiger.de/2021/09/06/mehrheit-will-bargeldlos-bezahlen/18047820%Daily2021-09-06 08:39
https://oiger.de/2021/09/05/altes-kondensatorwerk-goerlitz-wird-casus-forschungsschmiede/18047420%Daily2021-09-05 09:52
https://oiger.de/2021/09/04/lufttaxis-milliardenmarkt-oder-nur-ein-hype/18046420%Daily2021-09-04 11:10
https://oiger.de/2021/09/03/tuev-fordert-obligaten-ki-tuev/18046020%Daily2021-09-03 16:14
https://oiger.de/2021/09/03/schubert-motion-bringt-in-dresden-roboter-auf-trab/18045520%Daily2021-09-03 08:38
https://oiger.de/2021/09/02/sachsen-bekommt-eines-von-vier-wasserstoffzentren/18044420%Daily2021-09-02 16:47
https://oiger.de/2021/09/02/bund-schreibt-sondersubventionen-fuer-mikroelektronik-aus/18043820%Daily2021-09-02 09:14
https://oiger.de/2021/09/01/weniger-stromfresser-in-der-autoakku-fabrik/18043120%Daily2021-09-01 16:11
https://oiger.de/2021/09/01/gruselspiel-tormented-souls-im-alten-hospital-lautet-die-duesternis/18042520%Daily2021-09-01 09:50